sensor_id;sensor_type;location;lat;lon;timestamp;temperature;humidity
66019;HTU21D;52787;51.084;5.816;2024-01-10T00:02:00;-1.93;57.17
66019;HTU21D;52787;51.084;5.816;2024-01-10T00:04:26;-1.91;57.11
66019;HTU21D;52787;51.084;5.816;2024-01-10T00:06:52;-1.93;57.13
66019;HTU21D;52787;51.084;5.816;2024-01-10T00:09:18;-1.90;57.10
66019;HTU21D;52787;51.084;5.816;2024-01-10T00:11:43;-1.90;57.00
66019;HTU21D;52787;51.084;5.816;2024-01-10T00:14:09;-1.94;57.08
66019;HTU21D;52787;51.084;5.816;2024-01-10T00:16:36;-1.97;57.09
66019;HTU21D;52787;51.084;5.816;2024-01-10T00:19:02;-2.00;57.27
66019;HTU21D;52787;51.084;5.816;2024-01-10T00:21:28;-1.94;57.13
66019;HTU21D;52787;51.084;5.816;2024-01-10T00:23:54;-1.98;57.09
66019;HTU21D;52787;51.084;5.816;2024-01-10T00:26:20;-2.00;57.16
66019;HTU21D;52787;51.084;5.816;2024-01-10T00:28:46;-2.02;57.19
66019;HTU21D;52787;51.084;5.816;2024-01-10T00:31:13;-2.02;57.38
66019;HTU21D;52787;51.084;5.816;2024-01-10T00:33:39;-2.05;57.45
66019;HTU21D;52787;51.084;5.816;2024-01-10T00:36:06;-2.12;57.75
66019;HTU21D;52787;51.084;5.816;2024-01-10T00:38:32;-2.14;57.74
66019;HTU21D;52787;51.084;5.816;2024-01-10T00:40:58;-2.21;57.90
66019;HTU21D;52787;51.084;5.816;2024-01-10T00:43:25;-2.31;58.06
66019;HTU21D;52787;51.084;5.816;2024-01-10T00:45:50;-2.37;58.39
66019;HTU21D;52787;51.084;5.816;2024-01-10T00:48:16;-2.44;58.55
66019;HTU21D;52787;51.084;5.816;2024-01-10T00:50:45;-2.43;58.77
66019;HTU21D;52787;51.084;5.816;2024-01-10T00:53:11;-2.43;58.70
66019;HTU21D;52787;51.084;5.816;2024-01-10T00:55:37;-2.41;58.55
66019;HTU21D;52787;51.084;5.816;2024-01-10T00:58:03;-2.37;58.59
66019;HTU21D;52787;51.084;5.816;2024-01-10T01:00:29;-2.38;58.56
66019;HTU21D;52787;51.084;5.816;2024-01-10T01:02:55;-2.41;58.58
66019;HTU21D;52787;51.084;5.816;2024-01-10T01:05:21;-2.45;58.61
66019;HTU21D;52787;51.084;5.816;2024-01-10T01:07:47;-2.49;58.85
66019;HTU21D;52787;51.084;5.816;2024-01-10T01:10:13;-2.50;59.02
66019;HTU21D;52787;51.084;5.816;2024-01-10T01:12:38;-2.46;59.03
66019;HTU21D;52787;51.084;5.816;2024-01-10T01:15:05;-2.41;58.87
66019;HTU21D;52787;51.084;5.816;2024-01-10T01:17:31;-2.33;58.66
66019;HTU21D;52787;51.084;5.816;2024-01-10T01:19:57;-2.26;58.32
66019;HTU21D;52787;51.084;5.816;2024-01-10T01:22:22;-2.16;57.90
66019;HTU21D;52787;51.084;5.816;2024-01-10T01:24:48;-2.08;57.71
66019;HTU21D;52787;51.084;5.816;2024-01-10T01:27:14;-2.04;57.57
66019;HTU21D;52787;51.084;5.816;2024-01-10T01:29:39;-2.02;57.50
66019;HTU21D;52787;51.084;5.816;2024-01-10T01:32:05;-2.03;57.46
66019;HTU21D;52787;51.084;5.816;2024-01-10T01:34:31;-2.06;57.48
66019;HTU21D;52787;51.084;5.816;2024-01-10T01:36:57;-2.07;57.53
66019;HTU21D;52787;51.084;5.816;2024-01-10T01:39:23;-2.03;57.48
66019;HTU21D;52787;51.084;5.816;2024-01-10T01:41:48;-2.05;57.37
66019;HTU21D;52787;51.084;5.816;2024-01-10T01:44:14;-2.12;57.74
66019;HTU21D;52787;51.084;5.816;2024-01-10T01:46:40;-2.13;57.84
66019;HTU21D;52787;51.084;5.816;2024-01-10T01:49:06;-2.12;57.74
66019;HTU21D;52787;51.084;5.816;2024-01-10T01:51:35;-2.06;57.48
66019;HTU21D;52787;51.084;5.816;2024-01-10T01:54:06;-2.02;57.36
66019;HTU21D;52787;51.084;5.816;2024-01-10T01:56:37;-2.05;57.46
66019;HTU21D;52787;51.084;5.816;2024-01-10T01:59:04;-2.04;57.37
66019;HTU21D;52787;51.084;5.816;2024-01-10T02:01:30;-2.04;57.35
66019;HTU21D;52787;51.084;5.816;2024-01-10T02:03:57;-2.09;57.57
66019;HTU21D;52787;51.084;5.816;2024-01-10T02:06:22;-2.14;57.70
66019;HTU21D;52787;51.084;5.816;2024-01-10T02:08:48;-2.17;57.72
66019;HTU21D;52787;51.084;5.816;2024-01-10T02:11:15;-2.19;57.77
66019;HTU21D;52787;51.084;5.816;2024-01-10T02:13:41;-2.19;57.90
66019;HTU21D;52787;51.084;5.816;2024-01-10T02:16:07;-2.19;57.73
66019;HTU21D;52787;51.084;5.816;2024-01-10T02:18:34;-2.15;57.64
66019;HTU21D;52787;51.084;5.816;2024-01-10T02:21:03;-2.15;57.50
66019;HTU21D;52787;51.084;5.816;2024-01-10T02:23:28;-2.18;57.62
66019;HTU21D;52787;51.084;5.816;2024-01-10T02:25:54;-2.21;57.62
66019;HTU21D;52787;51.084;5.816;2024-01-10T02:28:20;-2.31;57.74
66019;HTU21D;52787;51.084;5.816;2024-01-10T02:30:50;-2.35;57.93
66019;HTU21D;52787;51.084;5.816;2024-01-10T02:33:16;-2.35;57.99
66019;HTU21D;52787;51.084;5.816;2024-01-10T02:35:42;-2.32;57.85
66019;HTU21D;52787;51.084;5.816;2024-01-10T02:38:07;-2.24;57.47
66019;HTU21D;52787;51.084;5.816;2024-01-10T02:40:33;-2.23;57.31
66019;HTU21D;52787;51.084;5.816;2024-01-10T02:42:59;-2.23;57.37
66019;HTU21D;52787;51.084;5.816;2024-01-10T02:45:25;-2.26;57.36
66019;HTU21D;52787;51.084;5.816;2024-01-10T02:47:50;-2.33;57.43
66019;HTU21D;52787;51.084;5.816;2024-01-10T02:50:16;-2.37;57.51
66019;HTU21D;52787;51.084;5.816;2024-01-10T02:52:42;-2.34;57.49
66019;HTU21D;52787;51.084;5.816;2024-01-10T02:55:08;-2.36;57.46
66019;HTU21D;52787;51.084;5.816;2024-01-10T02:57:34;-2.43;57.76
66019;HTU21D;52787;51.084;5.816;2024-01-10T02:59:59;-2.46;57.87
66019;HTU21D;52787;51.084;5.816;2024-01-10T03:02:25;-2.45;57.88
66019;HTU21D;52787;51.084;5.816;2024-01-10T03:04:51;-2.43;57.76
66019;HTU21D;52787;51.084;5.816;2024-01-10T03:07:17;-2.37;57.50
66019;HTU21D;52787;51.084;5.816;2024-01-10T03:09:43;-2.39;57.39
66019;HTU21D;52787;51.084;5.816;2024-01-10T03:12:11;-2.43;57.58
66019;HTU21D;52787;51.084;5.816;2024-01-10T03:14:37;-2.44;57.43
66019;HTU21D;52787;51.084;5.816;2024-01-10T03:17:03;-2.38;57.40
66019;HTU21D;52787;51.084;5.816;2024-01-10T03:19:28;-2.37;57.36
66019;HTU21D;52787;51.084;5.816;2024-01-10T03:21:54;-2.34;57.22
66019;HTU21D;52787;51.084;5.816;2024-01-10T03:24:20;-2.32;57.02
66019;HTU21D;52787;51.084;5.816;2024-01-10T03:26:46;-2.28;56.85
66019;HTU21D;52787;51.084;5.816;2024-01-10T03:29:11;-2.27;56.68
66019;HTU21D;52787;51.084;5.816;2024-01-10T03:31:37;-2.26;56.49
66019;HTU21D;52787;51.084;5.816;2024-01-10T03:34:03;-2.26;56.48
66019;HTU21D;52787;51.084;5.816;2024-01-10T03:36:29;-2.28;56.42
66019;HTU21D;52787;51.084;5.816;2024-01-10T03:38:55;-2.28;56.51
66019;HTU21D;52787;51.084;5.816;2024-01-10T03:41:21;-2.30;56.26
66019;HTU21D;52787;51.084;5.816;2024-01-10T03:43:47;-2.34;56.53
66019;HTU21D;52787;51.084;5.816;2024-01-10T03:46:13;-2.37;56.64
66019;HTU21D;52787;51.084;5.816;2024-01-10T03:48:39;-2.35;56.61
66019;HTU21D;52787;51.084;5.816;2024-01-10T03:51:17;-2.33;56.51
66019;HTU21D;52787;51.084;5.816;2024-01-10T03:53:45;-2.37;56.45
66019;HTU21D;52787;51.084;5.816;2024-01-10T03:56:12;-2.48;56.81
66019;HTU21D;52787;51.084;5.816;2024-01-10T03:58:37;-2.49;56.87
66019;HTU21D;52787;51.084;5.816;2024-01-10T04:01:07;-2.47;56.87
66019;HTU21D;52787;51.084;5.816;2024-01-10T04:03:34;-2.45;56.85
66019;HTU21D;52787;51.084;5.816;2024-01-10T04:06:04;-2.48;56.71
66019;HTU21D;52787;51.084;5.816;2024-01-10T04:08:31;-2.52;56.87
66019;HTU21D;52787;51.084;5.816;2024-01-10T04:10:56;-2.57;56.77
66019;HTU21D;52787;51.084;5.816;2024-01-10T04:13:23;-2.62;56.89
66019;HTU21D;52787;51.084;5.816;2024-01-10T04:15:49;-2.66;57.06
66019;HTU21D;52787;51.084;5.816;2024-01-10T04:18:15;-2.72;57.07
66019;HTU21D;52787;51.084;5.816;2024-01-10T04:20:40;-2.74;57.24
66019;HTU21D;52787;51.084;5.816;2024-01-10T04:23:07;-2.76;57.39
66019;HTU21D;52787;51.084;5.816;2024-01-10T04:25:33;-2.79;57.51
66019;HTU21D;52787;51.084;5.816;2024-01-10T04:27:58;-2.76;57.31
66019;HTU21D;52787;51.084;5.816;2024-01-10T04:30:24;-2.72;57.00
66019;HTU21D;52787;51.084;5.816;2024-01-10T04:32:50;-2.71;56.98
66019;HTU21D;52787;51.084;5.816;2024-01-10T04:35:16;-2.67;56.89
66019;HTU21D;52787;51.084;5.816;2024-01-10T04:37:41;-2.75;57.32
66019;HTU21D;52787;51.084;5.816;2024-01-10T04:40:08;-2.73;57.32
66019;HTU21D;52787;51.084;5.816;2024-01-10T04:42:34;-2.69;57.33
66019;HTU21D;52787;51.084;5.816;2024-01-10T04:45:00;-2.67;57.13
66019;HTU21D;52787;51.084;5.816;2024-01-10T04:47:54;-2.64;57.03
66019;HTU21D;52787;51.084;5.816;2024-01-10T04:50:19;-2.62;56.89
66019;HTU21D;52787;51.084;5.816;2024-01-10T04:52:45;-2.63;56.86
66019;HTU21D;52787;51.084;5.816;2024-01-10T04:55:11;-2.60;56.68
66019;HTU21D;52787;51.084;5.816;2024-01-10T04:57:37;-2.64;56.54
66019;HTU21D;52787;51.084;5.816;2024-01-10T05:00:03;-2.67;56.77
66019;HTU21D;52787;51.084;5.816;2024-01-10T05:02:30;-2.75;57.12
66019;HTU21D;52787;51.084;5.816;2024-01-10T05:04:55;-2.75;57.21
66019;HTU21D;52787;51.084;5.816;2024-01-10T05:07:21;-2.73;57.05
66019;HTU21D;52787;51.084;5.816;2024-01-10T05:09:47;-2.72;56.87
66019;HTU21D;52787;51.084;5.816;2024-01-10T05:12:13;-2.80;57.01
66019;HTU21D;52787;51.084;5.816;2024-01-10T05:14:38;-2.89;57.43
66019;HTU21D;52787;51.084;5.816;2024-01-10T05:17:04;-2.91;57.56
66019;HTU21D;52787;51.084;5.816;2024-01-10T05:19:30;-2.91;57.69
66019;HTU21D;52787;51.084;5.816;2024-01-10T05:21:56;-2.87;57.48
66019;HTU21D;52787;51.084;5.816;2024-01-10T05:24:22;-2.79;57.35
66019;HTU21D;52787;51.084;5.816;2024-01-10T05:26:48;-2.75;57.26
66019;HTU21D;52787;51.084;5.816;2024-01-10T05:29:16;-2.75;57.29
66019;HTU21D;52787;51.084;5.816;2024-01-10T05:31:45;-2.73;57.42
66019;HTU21D;52787;51.084;5.816;2024-01-10T05:34:12;-2.71;57.49
66019;HTU21D;52787;51.084;5.816;2024-01-10T05:36:38;-2.67;57.59
66019;HTU21D;52787;51.084;5.816;2024-01-10T05:39:04;-2.67;57.78
66019;HTU21D;52787;51.084;5.816;2024-01-10T05:41:29;-2.64;57.77
66019;HTU21D;52787;51.084;5.816;2024-01-10T05:43:55;-2.66;57.80
66019;HTU21D;52787;51.084;5.816;2024-01-10T05:46:21;-2.71;57.92
66019;HTU21D;52787;51.084;5.816;2024-01-10T05:48:48;-2.71;57.87
66019;HTU21D;52787;51.084;5.816;2024-01-10T05:51:14;-2.80;58.27
66019;HTU21D;52787;51.084;5.816;2024-01-10T05:53:40;-2.82;58.47
66019;HTU21D;52787;51.084;5.816;2024-01-10T05:56:06;-2.83;58.56
66019;HTU21D;52787;51.084;5.816;2024-01-10T05:58:32;-2.93;58.55
66019;HTU21D;52787;51.084;5.816;2024-01-10T06:00:58;-2.96;58.83
66019;HTU21D;52787;51.084;5.816;2024-01-10T06:03:24;-3.00;58.89
66019;HTU21D;52787;51.084;5.816;2024-01-10T06:05:50;-2.98;58.86
66019;HTU21D;52787;51.084;5.816;2024-01-10T06:08:16;-2.90;58.80
66019;HTU21D;52787;51.084;5.816;2024-01-10T06:10:42;-2.87;58.64
66019;HTU21D;52787;51.084;5.816;2024-01-10T06:13:08;-2.79;58.41
66019;HTU21D;52787;51.084;5.816;2024-01-10T06:15:34;-2.73;58.35
66019;HTU21D;52787;51.084;5.816;2024-01-10T06:17:59;-2.72;58.27
66019;HTU21D;52787;51.084;5.816;2024-01-10T06:20:25;-2.72;58.21
66019;HTU21D;52787;51.084;5.816;2024-01-10T06:22:51;-2.77;58.33
66019;HTU21D;52787;51.084;5.816;2024-01-10T06:25:17;-2.77;58.40
66019;HTU21D;52787;51.084;5.816;2024-01-10T06:27:45;-2.75;58.25
66019;HTU21D;52787;51.084;5.816;2024-01-10T06:30:14;-2.82;58.40
66019;HTU21D;52787;51.084;5.816;2024-01-10T06:32:40;-2.91;58.68
66019;HTU21D;52787;51.084;5.816;2024-01-10T06:35:06;-2.97;58.90
66019;HTU21D;52787;51.084;5.816;2024-01-10T06:37:34;-3.03;58.96
66019;HTU21D;52787;51.084;5.816;2024-01-10T06:40:00;-3.13;59.32
66019;HTU21D;52787;51.084;5.816;2024-01-10T06:42:26;-3.20;59.56
66019;HTU21D;52787;51.084;5.816;2024-01-10T06:44:51;-3.23;59.86
66019;HTU21D;52787;51.084;5.816;2024-01-10T06:47:17;-3.17;59.91
66019;HTU21D;52787;51.084;5.816;2024-01-10T06:49:43;-3.06;59.55
66019;HTU21D;52787;51.084;5.816;2024-01-10T06:52:09;-3.02;59.38
66019;HTU21D;52787;51.084;5.816;2024-01-10T06:54:35;-2.96;59.20
66019;HTU21D;52787;51.084;5.816;2024-01-10T06:57:01;-2.88;59.14
66019;HTU21D;52787;51.084;5.816;2024-01-10T06:59:26;-2.86;59.05
66019;HTU21D;52787;51.084;5.816;2024-01-10T07:01:53;-2.82;58.90
66019;HTU21D;52787;51.084;5.816;2024-01-10T07:04:22;-2.83;58.93
66019;HTU21D;52787;51.084;5.816;2024-01-10T07:06:49;-2.83;58.96
66019;HTU21D;52787;51.084;5.816;2024-01-10T07:09:15;-2.87;58.90
66019;HTU21D;52787;51.084;5.816;2024-01-10T07:11:48;-2.86;58.85
66019;HTU21D;52787;51.084;5.816;2024-01-10T07:14:15;-2.79;58.80
66019;HTU21D;52787;51.084;5.816;2024-01-10T07:16:41;-2.79;58.59
66019;HTU21D;52787;51.084;5.816;2024-01-10T07:19:11;-2.76;58.53
66019;HTU21D;52787;51.084;5.816;2024-01-10T07:21:40;-2.75;58.61
66019;HTU21D;52787;51.084;5.816;2024-01-10T07:24:07;-2.69;58.57
66019;HTU21D;52787;51.084;5.816;2024-01-10T07:26:37;-2.69;58.61
66019;HTU21D;52787;51.084;5.816;2024-01-10T07:29:03;-2.69;58.61
66019;HTU21D;52787;51.084;5.816;2024-01-10T07:31:29;-2.66;58.73
66019;HTU21D;52787;51.084;5.816;2024-01-10T07:33:56;-2.65;58.75
66019;HTU21D;52787;51.084;5.816;2024-01-10T07:36:24;-2.61;58.82
66019;HTU21D;52787;51.084;5.816;2024-01-10T07:38:52;-2.63;58.99
66019;HTU21D;52787;51.084;5.816;2024-01-10T07:41:18;-2.61;59.06
66019;HTU21D;52787;51.084;5.816;2024-01-10T07:44:03;-2.58;59.00
66019;HTU21D;52787;51.084;5.816;2024-01-10T07:46:29;-2.58;59.09
66019;HTU21D;52787;51.084;5.816;2024-01-10T07:48:55;-2.65;59.23
66019;HTU21D;52787;51.084;5.816;2024-01-10T07:51:20;-2.73;59.65
66019;HTU21D;52787;51.084;5.816;2024-01-10T07:53:47;-2.71;59.68
66019;HTU21D;52787;51.084;5.816;2024-01-10T07:56:14;-2.66;59.83
66019;HTU21D;52787;51.084;5.816;2024-01-10T07:58:39;-2.62;59.62
66019;HTU21D;52787;51.084;5.816;2024-01-10T08:01:05;-2.61;59.72
66019;HTU21D;52787;51.084;5.816;2024-01-10T08:03:31;-2.61;59.73
66019;HTU21D;52787;51.084;5.816;2024-01-10T08:05:58;-2.61;59.89
66019;HTU21D;52787;51.084;5.816;2024-01-10T08:08:24;-2.54;59.64
66019;HTU21D;52787;51.084;5.816;2024-01-10T08:10:50;-2.54;59.67
66019;HTU21D;52787;51.084;5.816;2024-01-10T08:13:16;-2.54;59.89
66019;HTU21D;52787;51.084;5.816;2024-01-10T08:15:41;-2.49;59.83
66019;HTU21D;52787;51.084;5.816;2024-01-10T08:18:07;-2.46;59.78
66019;HTU21D;52787;51.084;5.816;2024-01-10T08:20:33;-2.43;59.64
66019;HTU21D;52787;51.084;5.816;2024-01-10T08:22:59;-2.38;59.53
66019;HTU21D;52787;51.084;5.816;2024-01-10T08:25:25;-2.35;59.39
66019;HTU21D;52787;51.084;5.816;2024-01-10T08:27:51;-2.34;59.28
66019;HTU21D;52787;51.084;5.816;2024-01-10T08:30:19;-2.29;59.08
66019;HTU21D;52787;51.084;5.816;2024-01-10T08:32:47;-2.22;59.02
66019;HTU21D;52787;51.084;5.816;2024-01-10T08:35:13;-2.21;59.08
66019;HTU21D;52787;51.084;5.816;2024-01-10T08:37:39;-2.16;58.88
66019;HTU21D;52787;51.084;5.816;2024-01-10T08:40:11;-2.12;58.72
66019;HTU21D;52787;51.084;5.816;2024-01-10T08:42:40;-2.09;58.32
66019;HTU21D;52787;51.084;5.816;2024-01-10T08:45:06;-2.06;58.35
66019;HTU21D;52787;51.084;5.816;2024-01-10T08:47:35;-2.05;58.28
66019;HTU21D;52787;51.084;5.816;2024-01-10T08:50:03;-2.05;58.22
66019;HTU21D;52787;51.084;5.816;2024-01-10T08:52:31;-2.04;58.00
66019;HTU21D;52787;51.084;5.816;2024-01-10T08:54:57;-2.02;58.06
66019;HTU21D;52787;51.084;5.816;2024-01-10T08:57:23;-2.04;57.90
66019;HTU21D;52787;51.084;5.816;2024-01-10T08:59:51;-2.06;58.08
66019;HTU21D;52787;51.084;5.816;2024-01-10T09:02:17;-2.03;57.93
66019;HTU21D;52787;51.084;5.816;2024-01-10T09:04:43;-1.99;57.90
66019;HTU21D;52787;51.084;5.816;2024-01-10T09:07:08;-1.94;57.66
66019;HTU21D;52787;51.084;5.816;2024-01-10T09:09:35;-1.93;57.38
66019;HTU21D;52787;51.084;5.816;2024-01-10T09:12:00;-1.92;57.32
66019;HTU21D;52787;51.084;5.816;2024-01-10T09:14:26;-1.91;57.57
66019;HTU21D;52787;51.084;5.816;2024-01-10T09:16:52;-1.86;57.39
66019;HTU21D;52787;51.084;5.816;2024-01-10T09:19:18;-1.82;57.32
66019;HTU21D;52787;51.084;5.816;2024-01-10T09:21:44;-1.77;57.18
66019;HTU21D;52787;51.084;5.816;2024-01-10T09:24:14;-1.74;57.21
66019;HTU21D;52787;51.084;5.816;2024-01-10T09:26:40;-1.73;57.10
66019;HTU21D;52787;51.084;5.816;2024-01-10T09:29:06;-1.65;57.10
66019;HTU21D;52787;51.084;5.816;2024-01-10T09:31:35;-1.57;56.88
66019;HTU21D;52787;51.084;5.816;2024-01-10T09:34:01;-1.47;56.74
66019;HTU21D;52787;51.084;5.816;2024-01-10T09:36:26;-1.42;56.38
66019;HTU21D;52787;51.084;5.816;2024-01-10T09:38:52;-1.40;56.02
66019;HTU21D;52787;51.084;5.816;2024-01-10T09:41:19;-1.40;55.81
66019;HTU21D;52787;51.084;5.816;2024-01-10T09:43:45;-1.36;56.03
66019;HTU21D;52787;51.084;5.816;2024-01-10T09:46:11;-1.31;55.87
66019;HTU21D;52787;51.084;5.816;2024-01-10T09:48:38;-1.27;55.75
66019;HTU21D;52787;51.084;5.816;2024-01-10T09:51:04;-1.23;55.58
66019;HTU21D;52787;51.084;5.816;2024-01-10T09:53:31;-1.17;55.50
66019;HTU21D;52787;51.084;5.816;2024-01-10T09:56:03;-1.11;55.39
66019;HTU21D;52787;51.084;5.816;2024-01-10T09:58:31;-1.09;55.18
66019;HTU21D;52787;51.084;5.816;2024-01-10T10:00:59;-1.12;55.50
66019;HTU21D;52787;51.084;5.816;2024-01-10T10:03:26;-1.08;55.53
66019;HTU21D;52787;51.084;5.816;2024-01-10T10:05:52;-0.99;55.45
66019;HTU21D;52787;51.084;5.816;2024-01-10T10:08:18;-0.91;55.26
66019;HTU21D;52787;51.084;5.816;2024-01-10T10:10:50;-0.83;55.06
66019;HTU21D;52787;51.084;5.816;2024-01-10T10:13:27;-0.76;54.69
66019;HTU21D;52787;51.084;5.816;2024-01-10T10:16:22;-0.71;54.59
66019;HTU21D;52787;51.084;5.816;2024-01-10T10:18:49;-0.65;54.56
66019;HTU21D;52787;51.084;5.816;2024-01-10T10:21:15;-0.56;54.28
66019;HTU21D;52787;51.084;5.816;2024-01-10T10:23:59;-0.43;53.97
66019;HTU21D;52787;51.084;5.816;2024-01-10T10:26:27;-0.35;53.62
66019;HTU21D;52787;51.084;5.816;2024-01-10T10:28:55;-0.30;53.34
66019;HTU21D;52787;51.084;5.816;2024-01-10T10:31:21;-0.27;53.10
66019;HTU21D;52787;51.084;5.816;2024-01-10T10:33:49;-0.26;53.00
66019;HTU21D;52787;51.084;5.816;2024-01-10T10:36:19;-0.24;53.06
66019;HTU21D;52787;51.084;5.816;2024-01-10T10:38:48;-0.19;53.04
66019;HTU21D;52787;51.084;5.816;2024-01-10T10:41:15;-0.19;52.77
66019;HTU21D;52787;51.084;5.816;2024-01-10T10:43:41;-0.19;52.78
66019;HTU21D;52787;51.084;5.816;2024-01-10T10:46:09;-0.19;52.89
66019;HTU21D;52787;51.084;5.816;2024-01-10T10:48:38;-0.16;52.67
66019;HTU21D;52787;51.084;5.816;2024-01-10T10:51:14;-0.11;52.53
66019;HTU21D;52787;51.084;5.816;2024-01-10T10:53:43;-0.07;52.27
66019;HTU21D;52787;51.084;5.816;2024-01-10T10:56:12;-0.01;52.20
66019;HTU21D;52787;51.084;5.816;2024-01-10T10:58:43;0.06;52.16
66019;HTU21D;52787;51.084;5.816;2024-01-10T11:01:12;0.14;52.25
66019;HTU21D;52787;51.084;5.816;2024-01-10T11:03:39;0.29;52.17
66019;HTU21D;52787;51.084;5.816;2024-01-10T11:06:06;0.43;51.55
66019;HTU21D;52787;51.084;5.816;2024-01-10T11:08:52;0.64;51.45
66019;HTU21D;52787;51.084;5.816;2024-01-10T11:20:17;3.95;42.68
66019;HTU21D;52787;51.084;5.816;2024-01-10T11:23:21;3.90;42.16
66019;HTU21D;52787;51.084;5.816;2024-01-10T11:26:16;3.49;43.38
66019;HTU21D;52787;51.084;5.816;2024-01-10T11:28:42;3.23;44.00
66019;HTU21D;52787;51.084;5.816;2024-01-10T11:31:08;3.03;44.50
66019;HTU21D;52787;51.084;5.816;2024-01-10T11:33:36;2.90;45.09
66019;HTU21D;52787;51.084;5.816;2024-01-10T11:41:32;3.06;44.65
66019;HTU21D;52787;51.084;5.816;2024-01-10T11:49:12;3.74;42.43
66019;HTU21D;52787;51.084;5.816;2024-01-10T11:54:47;4.24;41.24
66019;HTU21D;52787;51.084;5.816;2024-01-10T11:59:43;4.13;41.29
66019;HTU21D;52787;51.084;5.816;2024-01-10T12:02:17;4.05;41.65
66019;HTU21D;52787;51.084;5.816;2024-01-10T12:04:44;3.97;41.51
66019;HTU21D;52787;51.084;5.816;2024-01-10T12:07:11;3.77;41.28
66019;HTU21D;52787;51.084;5.816;2024-01-10T12:09:38;3.52;41.92
66019;HTU21D;52787;51.084;5.816;2024-01-10T12:12:05;3.31;42.42
66019;HTU21D;52787;51.084;5.816;2024-01-10T12:14:31;3.17;42.58
66019;HTU21D;52787;51.084;5.816;2024-01-10T12:16:58;3.05;42.98
66019;HTU21D;52787;51.084;5.816;2024-01-10T12:19:25;2.97;43.32
66019;HTU21D;52787;51.084;5.816;2024-01-10T12:21:51;2.89;43.49
66019;HTU21D;52787;51.084;5.816;2024-01-10T12:24:18;2.85;43.75
66019;HTU21D;52787;51.084;5.816;2024-01-10T12:26:45;2.80;43.67
66019;HTU21D;52787;51.084;5.816;2024-01-10T12:29:12;2.79;43.68
66019;HTU21D;52787;51.084;5.816;2024-01-10T12:31:37;2.86;43.90
66019;HTU21D;52787;51.084;5.816;2024-01-10T12:34:07;2.91;43.80
66019;HTU21D;52787;51.084;5.816;2024-01-10T12:36:34;2.80;43.99
66019;HTU21D;52787;51.084;5.816;2024-01-10T12:39:01;2.64;44.18
66019;HTU21D;52787;51.084;5.816;2024-01-10T12:41:27;2.50;44.37
66019;HTU21D;52787;51.084;5.816;2024-01-10T12:43:53;2.37;44.66
66019;HTU21D;52787;51.084;5.816;2024-01-10T12:46:22;2.25;44.81
66019;HTU21D;52787;51.084;5.816;2024-01-10T12:49:18;2.16;44.83
66019;HTU21D;52787;51.084;5.816;2024-01-10T12:51:44;2.16;45.06
66019;HTU21D;52787;51.084;5.816;2024-01-10T12:54:10;2.21;45.15
66019;HTU21D;52787;51.084;5.816;2024-01-10T12:56:36;2.29;44.90
66019;HTU21D;52787;51.084;5.816;2024-01-10T12:59:01;2.31;44.67
66019;HTU21D;52787;51.084;5.816;2024-01-10T13:01:27;2.50;44.49
66019;HTU21D;52787;51.084;5.816;2024-01-10T13:03:53;2.75;44.03
66019;HTU21D;52787;51.084;5.816;2024-01-10T13:06:19;2.82;43.78
66019;HTU21D;52787;51.084;5.816;2024-01-10T13:08:48;2.75;43.76
66019;HTU21D;52787;51.084;5.816;2024-01-10T13:11:14;2.84;43.85
66019;HTU21D;52787;51.084;5.816;2024-01-10T13:13:40;3.44;43.64
66019;HTU21D;52787;51.084;5.816;2024-01-10T13:16:08;5.17;41.90
66019;HTU21D;52787;51.084;5.816;2024-01-10T13:18:39;6.82;37.17
66019;HTU21D;52787;51.084;5.816;2024-01-10T13:21:05;7.68;34.29
66019;HTU21D;52787;51.084;5.816;2024-01-10T13:23:32;7.87;33.05
66019;HTU21D;52787;51.084;5.816;2024-01-10T13:25:58;7.45;32.56
66019;HTU21D;52787;51.084;5.816;2024-01-10T13:28:24;6.72;33.92
66019;HTU21D;52787;51.084;5.816;2024-01-10T13:30:50;6.08;35.47
66019;HTU21D;52787;51.084;5.816;2024-01-10T13:33:16;5.51;36.77
66019;HTU21D;52787;51.084;5.816;2024-01-10T13:35:42;5.09;38.01
66019;HTU21D;52787;51.084;5.816;2024-01-10T13:38:08;4.76;38.53
66019;HTU21D;52787;51.084;5.816;2024-01-10T13:40:35;4.45;39.31
66019;HTU21D;52787;51.084;5.816;2024-01-10T13:43:01;4.17;40.21
66019;HTU21D;52787;51.084;5.816;2024-01-10T13:45:29;3.91;40.75
66019;HTU21D;52787;51.084;5.816;2024-01-10T13:47:55;3.67;41.66
66019;HTU21D;52787;51.084;5.816;2024-01-10T13:50:21;3.52;42.73
66019;HTU21D;52787;51.084;5.816;2024-01-10T13:52:47;3.40;43.28
66019;HTU21D;52787;51.084;5.816;2024-01-10T13:55:13;3.27;43.31
66019;HTU21D;52787;51.084;5.816;2024-01-10T13:57:39;3.18;43.74
66019;HTU21D;52787;51.084;5.816;2024-01-10T14:00:06;3.14;43.61
66019;HTU21D;52787;51.084;5.816;2024-01-10T14:02:42;3.08;43.61
66019;HTU21D;52787;51.084;5.816;2024-01-10T14:05:08;3.14;43.90
66019;HTU21D;52787;51.084;5.816;2024-01-10T14:07:35;3.65;43.87
66019;HTU21D;52787;51.084;5.816;2024-01-10T14:10:01;4.72;42.52
66019;HTU21D;52787;51.084;5.816;2024-01-10T14:12:28;5.65;39.29
66019;HTU21D;52787;51.084;5.816;2024-01-10T14:14:56;6.33;37.66
66019;HTU21D;52787;51.084;5.816;2024-01-10T14:17:24;6.82;36.44
66019;HTU21D;52787;51.084;5.816;2024-01-10T14:19:51;7.11;35.73
66019;HTU21D;52787;51.084;5.816;2024-01-10T14:22:18;7.42;34.95
66019;HTU21D;52787;51.084;5.816;2024-01-10T14:24:44;7.38;34.37
66019;HTU21D;52787;51.084;5.816;2024-01-10T14:27:10;7.12;35.01
66019;HTU21D;52787;51.084;5.816;2024-01-10T14:29:36;7.12;35.23
66019;HTU21D;52787;51.084;5.816;2024-01-10T14:32:02;7.15;34.72
66019;HTU21D;52787;51.084;5.816;2024-01-10T14:34:29;6.98;34.89
66019;HTU21D;52787;51.084;5.816;2024-01-10T14:36:54;6.86;35.31
66019;HTU21D;52787;51.084;5.816;2024-01-10T14:39:20;6.90;36.06
66019;HTU21D;52787;51.084;5.816;2024-01-10T14:41:46;7.37;35.36
66019;HTU21D;52787;51.084;5.816;2024-01-10T14:44:12;7.78;34.73
66019;HTU21D;52787;51.084;5.816;2024-01-10T14:46:38;8.58;34.02
66019;HTU21D;52787;51.084;5.816;2024-01-10T14:49:04;9.62;32.48
66019;HTU21D;52787;51.084;5.816;2024-01-10T14:51:30;10.54;29.79
66019;HTU21D;52787;51.084;5.816;2024-01-10T14:53:55;11.02;28.03
66019;HTU21D;52787;51.084;5.816;2024-01-10T14:56:21;10.84;27.08
66019;HTU21D;52787;51.084;5.816;2024-01-10T14:58:48;9.86;28.45
66019;HTU21D;52787;51.084;5.816;2024-01-10T15:01:16;8.81;30.56
66019;HTU21D;52787;51.084;5.816;2024-01-10T15:03:43;7.83;32.59
66019;HTU21D;52787;51.084;5.816;2024-01-10T15:06:09;6.96;34.54
66019;HTU21D;52787;51.084;5.816;2024-01-10T15:08:35;6.29;36.17
66019;HTU21D;52787;51.084;5.816;2024-01-10T15:11:02;5.68;37.70
66019;HTU21D;52787;51.084;5.816;2024-01-10T15:13:28;5.15;39.30
66019;HTU21D;52787;51.084;5.816;2024-01-10T15:15:54;4.73;40.88
66019;HTU21D;52787;51.084;5.816;2024-01-10T15:20:48;4.07;42.50
66019;HTU21D;52787;51.084;5.816;2024-01-10T15:23:14;3.83;43.01
66019;HTU21D;52787;51.084;5.816;2024-01-10T15:25:40;3.62;43.60
66019;HTU21D;52787;51.084;5.816;2024-01-10T15:28:05;3.44;44.10
66019;HTU21D;52787;51.084;5.816;2024-01-10T15:30:33;3.32;44.79
66019;HTU21D;52787;51.084;5.816;2024-01-10T15:32:58;3.11;44.90
66019;HTU21D;52787;51.084;5.816;2024-01-10T15:35:25;2.87;45.59
66019;HTU21D;52787;51.084;5.816;2024-01-10T15:37:51;2.70;45.96
66019;HTU21D;52787;51.084;5.816;2024-01-10T15:40:18;2.55;46.64
66019;HTU21D;52787;51.084;5.816;2024-01-10T15:42:44;2.39;47.02
66019;HTU21D;52787;51.084;5.816;2024-01-10T15:45:13;2.26;47.50
66019;HTU21D;52787;51.084;5.816;2024-01-10T15:47:40;2.14;48.07